createdAt,value
2019-05-17T00:00:28.452Z,6.00
2019-05-17T00:02:57.209Z,6.00
2019-05-17T00:07:56.671Z,5.90
2019-05-17T00:10:26.464Z,5.80
2019-05-17T00:12:56.397Z,5.70
2019-05-17T00:15:27.365Z,5.60
2019-05-17T00:30:26.540Z,5.20
2019-05-17T00:32:56.915Z,5.20
2019-05-17T00:35:26.793Z,5.20
2019-05-17T00:40:27.033Z,5.10
2019-05-17T00:42:57.059Z,5.10
2019-05-17T00:45:26.773Z,5.10
2019-05-17T00:52:56.751Z,5.00
2019-05-17T01:07:57.355Z,5.00
2019-05-17T01:10:27.180Z,5.00
2019-05-17T01:15:27.314Z,5.10
2019-05-17T01:17:56.887Z,5.10
2019-05-17T01:20:27.586Z,5.10
2019-05-17T01:22:56.703Z,5.10
2019-05-17T01:25:27.153Z,5.10
2019-05-17T01:30:26.639Z,5.10
2019-05-17T01:32:57.049Z,5.10
2019-05-17T01:35:26.595Z,5.10
2019-05-17T01:37:56.502Z,5.10
2019-05-17T01:42:55.461Z,5.10
2019-05-17T01:45:23.984Z,5.10
2019-05-17T01:50:21.468Z,5.20
2019-05-17T01:52:50.561Z,5.00
2019-05-17T01:55:19.353Z,4.90
2019-05-17T01:57:48.516Z,4.90
2019-05-17T02:00:17.850Z,5.00
2019-05-17T02:02:48.139Z,4.80
2019-05-17T02:07:46.748Z,4.70
2019-05-17T02:10:16.865Z,4.60
2019-05-17T02:12:48.771Z,4.60
2019-05-17T02:15:16.972Z,4.60
2019-05-17T02:22:47.428Z,4.20
2019-05-17T02:35:14.355Z,3.90
2019-05-17T02:40:14.861Z,4.00
2019-05-17T02:45:13.455Z,4.10
2019-05-17T02:47:43.742Z,4.10
2019-05-17T02:50:13.683Z,4.10
2019-05-17T03:02:43.837Z,4.00
2019-05-17T03:05:13.970Z,4.00
2019-05-17T03:17:43.452Z,3.80
2019-05-17T03:30:18.217Z,3.50
2019-05-17T03:32:48.581Z,3.40
2019-05-17T03:35:17.645Z,3.40
2019-05-17T03:37:46.104Z,3.40
2019-05-17T03:40:35.074Z,3.50
2019-05-17T03:42:46.174Z,3.50
2019-05-17T03:45:15.429Z,3.50
2019-05-17T03:47:44.982Z,3.40
2019-05-17T03:52:44.511Z,3.40
2019-05-17T03:57:43.982Z,3.40
2019-05-17T04:00:13.891Z,3.30
2019-05-17T04:02:44.464Z,3.50
2019-05-17T04:27:43.590Z,4.60
2019-05-17T04:32:44.304Z,4.70
2019-05-17T04:35:13.170Z,4.70
2019-05-17T04:37:44.461Z,4.70
2019-05-17T04:42:44.150Z,4.80
2019-05-17T04:47:44.372Z,4.90
2019-05-17T04:50:13.705Z,5.10
2019-05-17T05:00:13.125Z,5.30
2019-05-17T05:03:03.831Z,5.50
2019-05-17T05:05:32.994Z,5.60
2019-05-17T05:10:33.815Z,5.80
2019-05-17T05:13:03.432Z,5.90
2019-05-17T05:15:44.167Z,6.00
2019-05-17T05:20:43.647Z,6.40
2019-05-17T05:23:13.158Z,6.60
2019-05-17T05:43:03.137Z,7.10
2019-05-17T05:45:32.142Z,7.20
2019-05-17T05:48:01.832Z,7.40
2019-05-17T05:55:32.156Z,7.80
2019-05-17T05:58:02.925Z,7.90
2019-05-17T06:00:33.064Z,8.10
2019-05-17T06:03:04.238Z,8.20
2019-05-17T06:05:32.538Z,8.30
2019-05-17T06:08:02.871Z,8.30
2019-05-17T06:10:32.517Z,8.50
2019-05-17T06:13:03.058Z,8.60
2019-05-17T06:15:32.050Z,8.70
2019-05-17T06:18:02.995Z,8.90
2019-05-17T06:20:32.355Z,8.90
2019-05-17T06:30:32.386Z,9.30
2019-05-17T06:33:03.258Z,9.30
2019-05-17T06:35:52.541Z,9.40
2019-05-17T06:40:52.362Z,9.60
2019-05-17T06:43:21.842Z,9.70
2019-05-17T06:45:52.201Z,9.70
2019-05-17T06:48:22.293Z,9.80
2019-05-17T06:50:51.957Z,10.00
2019-05-17T06:53:21.990Z,10.10
2019-05-17T07:00:46.814Z,10.40
2019-05-17T07:05:44.972Z,10.40
2019-05-17T07:08:13.405Z,10.50
2019-05-17T07:10:41.844Z,10.50
2019-05-17T07:15:47.238Z,10.80
2019-05-17T07:20:39.657Z,10.90
2019-05-17T07:28:10.010Z,11.20
2019-05-17T07:30:40.042Z,11.30
2019-05-17T07:33:10.056Z,11.40
2019-05-17T07:35:39.617Z,11.40
2019-05-17T07:38:10.639Z,11.50
2019-05-17T07:43:13.805Z,11.70
2019-05-17T07:45:40.428Z,11.80
2019-05-17T07:50:39.866Z,12.00
2019-05-17T07:53:10.391Z,12.00
2019-05-17T08:00:40.051Z,12.50
2019-05-17T08:03:12.969Z,12.60
2019-05-17T08:05:40.359Z,12.80
2019-05-17T08:08:09.991Z,12.90
2019-05-17T08:10:41.104Z,13.00
2019-05-17T08:13:25.094Z,13.10
2019-05-17T08:18:10.895Z,13.10
2019-05-17T08:20:40.177Z,13.20
2019-05-17T08:23:10.692Z,13.20
2019-05-17T08:28:11.038Z,13.20
2019-05-17T08:30:40.928Z,13.40
2019-05-17T08:33:10.952Z,13.40
2019-05-17T08:35:40.269Z,13.50
2019-05-17T08:38:10.400Z,13.60
2019-05-17T08:40:40.513Z,13.60
2019-05-17T08:43:09.963Z,13.70
2019-05-17T08:50:40.287Z,13.90
2019-05-17T08:53:10.394Z,13.90
2019-05-17T08:58:10.274Z,14.10
2019-05-17T09:00:40.701Z,14.20
2019-05-17T09:05:41.375Z,14.30
2019-05-17T09:08:10.483Z,14.50
2019-05-17T09:15:39.924Z,14.80
2019-05-17T09:23:09.663Z,15.10
2019-05-17T09:30:40.439Z,15.30
2019-05-17T09:33:08.147Z,15.30
2019-05-17T09:35:36.575Z,15.40
2019-05-17T09:40:33.361Z,15.40
2019-05-17T09:50:29.440Z,15.60
2019-05-17T09:55:29.988Z,15.40
2019-05-17T10:00:29.710Z,15.90
2019-05-17T10:05:31.074Z,16.30
2019-05-17T10:22:50.483Z,17.20
2019-05-17T10:30:20.860Z,17.40
2019-05-17T10:35:19.936Z,17.50
2019-05-17T10:40:20.797Z,17.20
2019-05-17T10:45:19.828Z,17.10
2019-05-17T10:47:50.264Z,17.20
2019-05-17T10:52:48.930Z,17.80
2019-05-17T11:20:09.589Z,18.50
2019-05-17T11:30:04.486Z,18.50
2019-05-17T11:35:01.041Z,18.40
2019-05-17T11:37:29.454Z,18.50
2019-05-17T11:39:57.890Z,18.60
2019-05-17T11:44:54.411Z,18.70
2019-05-17T11:59:43.277Z,19.50
2019-05-17T12:02:11.702Z,19.60
2019-05-17T12:04:40.109Z,19.60
2019-05-17T12:07:08.611Z,19.60
2019-05-17T12:09:37.924Z,19.50
2019-05-17T12:14:36.831Z,19.50
2019-05-17T12:17:05.253Z,19.50
2019-05-17T12:19:36.897Z,19.50
2019-05-17T12:22:03.983Z,19.50
2019-05-17T12:24:32.398Z,19.50
2019-05-17T12:27:00.819Z,19.20
2019-05-17T12:29:29.248Z,19.10
2019-05-17T12:31:57.673Z,19.10
2019-05-17T12:34:26.398Z,19.20
2019-05-17T12:36:55.071Z,19.20
2019-05-17T12:39:23.486Z,19.10
2019-05-17T12:41:51.979Z,18.70
2019-05-17T12:44:20.798Z,18.70
2019-05-17T12:46:49.453Z,18.40
2019-05-17T12:49:17.881Z,18.40
2019-05-17T12:51:46.306Z,18.30
2019-05-17T12:54:14.722Z,18.40
2019-05-17T12:56:43.153Z,18.50
2019-05-17T12:59:11.568Z,18.70
2019-05-17T13:01:40.062Z,19.10
2019-05-17T13:04:08.489Z,19.30
2019-05-17T13:06:36.921Z,19.50
2019-05-17T13:09:05.985Z,19.70
2019-05-17T13:11:34.413Z,19.90
2019-05-17T13:14:03.208Z,20.20
2019-05-17T13:16:32.083Z,20.30
2019-05-17T13:19:00.528Z,20.20
2019-05-17T13:21:29.006Z,20.10
2019-05-17T13:23:57.421Z,20.40
2019-05-17T13:26:26.206Z,20.40
2019-05-17T13:28:54.633Z,20.40
2019-05-17T13:31:23.051Z,20.40
2019-05-17T13:33:51.469Z,20.50
2019-05-17T13:36:19.907Z,20.50
2019-05-17T13:38:48.328Z,20.70
2019-05-17T13:41:16.769Z,20.80
2019-05-17T13:43:45.206Z,20.80
2019-05-17T13:46:13.915Z,20.80
2019-05-17T13:48:42.403Z,20.70
2019-05-17T13:51:10.828Z,20.70
2019-05-17T13:53:39.292Z,20.80
2019-05-17T13:56:07.717Z,20.80
2019-05-17T13:58:36.140Z,20.90
2019-05-17T14:01:04.645Z,20.80
2019-05-17T14:03:33.078Z,20.70
2019-05-17T14:06:01.483Z,20.60
2019-05-17T14:08:29.905Z,20.50
2019-05-17T14:10:58.325Z,20.40
2019-05-17T14:13:26.781Z,20.20
2019-05-17T14:15:55.265Z,20.10
2019-05-17T14:18:23.698Z,20.00
2019-05-17T14:20:52.137Z,19.90
2019-05-17T14:23:20.630Z,19.90
2019-05-17T14:25:49.052Z,19.80
2019-05-17T14:28:17.496Z,19.60
2019-05-17T14:30:45.912Z,18.90
2019-05-17T14:33:14.333Z,18.30
2019-05-17T14:35:42.765Z,17.90
2019-05-17T14:38:11.201Z,17.30
2019-05-17T14:41:04.968Z,16.90
2019-05-17T14:43:09.806Z,16.70
2019-05-17T14:45:38.230Z,16.30
2019-05-17T14:48:06.660Z,16.10
2019-05-17T14:50:35.195Z,15.90
2019-05-17T14:55:31.694Z,15.90
2019-05-17T14:58:00.195Z,15.50
2019-05-17T15:00:28.624Z,15.50
2019-05-17T15:02:57.120Z,15.40
2019-05-17T15:05:25.570Z,15.20
2019-05-17T15:07:53.994Z,14.90
2019-05-17T15:10:22.409Z,14.70
2019-05-17T15:12:50.839Z,14.50
2019-05-17T15:17:49.150Z,14.10
2019-05-17T15:20:17.630Z,14.00
2019-05-17T15:22:46.057Z,13.90
2019-05-17T15:25:14.472Z,13.80
2019-05-17T15:30:11.935Z,13.50
2019-05-17T15:35:08.680Z,13.60
2019-05-17T15:37:37.107Z,13.60
2019-05-17T15:40:06.777Z,13.60
2019-05-17T15:42:43.701Z,13.60
2019-05-17T15:45:06.973Z,13.80
2019-05-17T15:47:35.395Z,14.00
2019-05-17T15:50:06.431Z,14.10
2019-05-17T15:52:34.849Z,14.20
2019-05-17T15:55:04.102Z,14.20
2019-05-17T16:00:00.612Z,14.20
2019-05-17T16:02:29.026Z,14.20
2019-05-17T16:04:57.453Z,14.30
2019-05-17T16:07:25.877Z,14.30
2019-05-17T16:09:54.304Z,14.30
2019-05-17T16:12:22.724Z,14.40
2019-05-17T16:14:51.161Z,14.40
2019-05-17T16:17:19.574Z,14.50
2019-05-17T16:19:48.007Z,14.50
2019-05-17T16:22:16.434Z,14.60
2019-05-17T16:24:44.897Z,14.60
2019-05-17T16:27:13.316Z,14.60
2019-05-17T16:29:41.756Z,14.70
2019-05-17T16:32:10.170Z,14.60
2019-05-17T16:34:38.606Z,14.60
2019-05-17T16:37:07.022Z,14.50
2019-05-17T16:39:35.458Z,14.40
2019-05-17T16:44:32.042Z,14.50
2019-05-17T16:47:00.466Z,14.60
2019-05-17T16:49:28.906Z,14.60
2019-05-17T16:51:57.381Z,14.60
2019-05-17T16:54:25.815Z,14.60
2019-05-17T16:56:54.258Z,14.70
2019-05-17T17:01:50.885Z,14.60
2019-05-17T17:04:19.555Z,14.50
2019-05-17T17:06:47.980Z,14.40
2019-05-17T17:19:10.922Z,13.90
2019-05-17T17:24:07.441Z,14.00
2019-05-17T17:26:35.866Z,14.00
2019-05-17T17:29:04.362Z,14.00
2019-05-17T17:31:32.794Z,14.20
2019-05-17T17:34:01.220Z,14.20
2019-05-17T17:36:29.722Z,14.20
2019-05-17T17:38:58.142Z,14.30
2019-05-17T17:41:26.878Z,14.30
2019-05-17T17:43:58.767Z,14.30
2019-05-17T17:46:25.730Z,14.20
2019-05-17T17:48:54.222Z,14.10
2019-05-17T17:51:22.728Z,14.10
2019-05-17T17:53:51.710Z,14.00
2019-05-17T17:56:20.492Z,14.00
2019-05-17T17:58:49.194Z,13.90
2019-05-17T18:01:17.627Z,13.90
2019-05-17T18:03:46.052Z,13.90
2019-05-17T18:06:14.483Z,13.90
2019-05-17T18:08:42.892Z,13.80
2019-05-17T18:11:11.325Z,13.70
2019-05-17T18:13:40.040Z,13.60
2019-05-17T18:16:08.579Z,13.60
2019-05-17T18:18:37.307Z,13.50
2019-05-17T18:21:06.292Z,13.50
2019-05-17T18:23:36.585Z,13.50
2019-05-17T18:26:05.433Z,13.40
2019-05-17T18:28:33.918Z,13.30
2019-05-17T18:31:02.410Z,13.30
2019-05-17T18:33:30.960Z,13.30
2019-05-17T18:35:59.393Z,13.20
2019-05-17T18:38:30.924Z,13.20
2019-05-17T18:40:59.349Z,13.10
2019-05-17T18:43:28.091Z,13.00
2019-05-17T18:45:56.783Z,13.00
2019-05-17T18:48:26.374Z,13.00
2019-05-17T18:53:22.881Z,12.60
2019-05-17T18:55:51.333Z,12.40
2019-05-17T18:58:19.764Z,12.40
2019-05-17T19:00:48.335Z,12.30
2019-05-17T19:03:36.356Z,12.20
2019-05-17T19:06:04.955Z,12.10
2019-05-17T19:08:33.383Z,11.90
2019-05-17T19:11:01.808Z,11.90
2019-05-17T19:13:30.229Z,11.80
2019-05-17T19:15:58.936Z,11.80
2019-05-17T19:20:55.467Z,11.80
2019-05-17T19:25:54.660Z,11.80
2019-05-17T19:28:23.090Z,11.80
2019-05-17T19:30:51.620Z,11.80
2019-05-17T19:33:20.053Z,11.70
2019-05-17T19:35:48.478Z,11.60
2019-05-17T19:38:16.890Z,11.60
2019-05-17T19:40:45.327Z,11.60
2019-05-17T19:43:14.099Z,11.50
2019-05-17T19:45:42.579Z,11.40
2019-05-17T19:48:11.035Z,11.40
2019-05-17T19:58:04.095Z,11.50
2019-05-17T20:00:32.604Z,11.60
2019-05-17T20:05:29.189Z,11.60
2019-05-17T20:07:57.921Z,11.50
2019-05-17T20:10:27.070Z,11.50
2019-05-17T20:12:55.898Z,11.50
2019-05-17T20:15:34.175Z,11.50
2019-05-17T20:17:54.603Z,11.50
2019-05-17T20:20:23.018Z,11.60
2019-05-17T20:22:51.461Z,11.60
2019-05-17T20:25:20.630Z,11.60
2019-05-17T20:27:49.056Z,11.60
2019-05-17T20:30:18.917Z,11.60
2019-05-17T20:35:17.935Z,11.50
2019-05-17T20:37:46.223Z,11.60
2019-05-17T20:40:16.005Z,11.50
2019-05-17T20:50:10.201Z,11.40
2019-05-17T20:52:38.619Z,11.40
2019-05-17T20:55:07.801Z,11.50
2019-05-17T20:57:36.323Z,11.50
2019-05-17T21:00:28.506Z,11.50
2019-05-17T21:02:56.936Z,11.50
2019-05-17T21:05:25.360Z,11.50
2019-05-17T21:07:53.789Z,11.50
2019-05-17T21:25:11.445Z,11.60
2019-05-17T21:27:39.876Z,11.60
2019-05-17T21:30:08.642Z,11.60
2019-05-17T21:35:05.576Z,11.60
2019-05-17T21:40:02.921Z,11.50
2019-05-17T21:44:59.434Z,11.30
2019-05-17T21:47:28.211Z,11.20
2019-05-17T21:49:56.680Z,11.20
2019-05-17T21:52:25.115Z,11.20
2019-05-17T21:57:21.853Z,11.20
2019-05-17T22:02:18.374Z,11.30
2019-05-17T22:04:46.813Z,11.30
2019-05-17T22:07:15.244Z,11.30
2019-05-17T22:29:30.636Z,11.30
2019-05-17T22:34:27.143Z,11.20
2019-05-17T22:36:55.570Z,11.20
2019-05-17T22:39:24.002Z,11.20
2019-05-17T22:51:45.095Z,11.20
2019-05-17T22:54:13.526Z,11.10
2019-05-17T22:56:41.937Z,11.10
2019-05-17T22:59:10.658Z,11.10
2019-05-17T23:14:00.203Z,11.10
2019-05-17T23:16:28.615Z,11.20
2019-05-17T23:19:10.078Z,11.20
2019-05-17T23:21:38.666Z,11.20
2019-05-17T23:24:07.417Z,11.10
2019-05-17T23:29:04.367Z,11.10
2019-05-17T23:31:32.839Z,11.10
2019-05-17T23:34:01.255Z,11.10
2019-05-17T23:46:22.589Z,11.00
2019-05-17T23:48:51.006Z,11.00
2019-05-17T23:53:47.523Z,11.00
2019-05-17T23:56:15.957Z,11.00
